Time;durP1;ratioP1;P1;durP2;ratioP2;P2;SDS_P1;SDS_P2;PMS_P1;PMS_P2;Temp;Humidity;BMP_temperature;BMP_pressure;BME280_temperature;BME280_humidity;BME280_pressure;Samples;Min_cycle;Max_cycle;Signal;HPM_P1;HPM_P2
2022/05/17 04:02:15;;;;;;;9.87;8.93;;;13.90;96.30;;;;;;5144919;23;21031;-74
2022/05/17 04:04:40;;;;;;;10.20;9.17;;;13.90;96.30;;;;;;4975246;28;20422;-73
2022/05/17 04:07:06;;;;;;;11.47;10.33;;;13.90;96.30;;;;;;4974893;28;20189;-76
2022/05/17 04:09:31;;;;;;;10.60;9.63;;;13.90;96.30;;;;;;4973732;28;20186;-73
2022/05/17 04:11:57;;;;;;;14.20;11.90;;;13.90;96.30;;;;;;4975148;28;20202;-74
2022/05/17 04:14:22;;;;;;;14.20;12.90;;;13.90;96.30;;;;;;4975152;28;20192;-73
2022/05/17 04:16:48;;;;;;;13.03;11.37;;;13.80;96.30;;;;;;4977488;28;20204;-76
2022/05/17 04:19:15;;;;;;;12.53;11.27;;;13.90;96.30;;;;;;4956755;28;20756;-75
2022/05/17 04:24:16;;;;;;;14.83;13.43;;;13.90;96.30;;;;;;5879868;23;21102;-75
2022/05/17 04:26:42;;;;;;;15.93;14.63;;;13.90;96.30;;;;;;4955672;29;20395;-74
2022/05/17 04:29:08;;;;;;;15.63;13.93;;;13.90;96.30;;;;;;4955328;29;20175;-74
2022/05/17 04:31:35;;;;;;;15.30;13.70;;;13.90;96.30;;;;;;4951233;29;20208;-74
2022/05/17 04:34:02;;;;;;;16.83;15.17;;;13.90;96.30;;;;;;4952999;29;20415;-78
2022/05/17 04:36:28;;;;;;;19.70;17.80;;;13.90;96.30;;;;;;4936116;29;20486;-73
2022/05/17 04:38:54;;;;;;;20.90;18.90;;;13.90;96.30;;;;;;4935912;29;20990;-73
2022/05/17 04:41:19;;;;;;;21.80;19.80;;;13.90;96.30;;;;;;4936031;29;20685;-73
2022/05/17 04:43:46;;;;;;;23.90;21.27;;;13.90;96.30;;;;;;4936091;29;20179;-76
2022/05/17 04:46:11;;;;;;;21.90;19.80;;;13.90;96.30;;;;;;4935968;29;20172;-76
2022/05/17 04:48:38;;;;;;;23.53;21.53;;;13.90;96.30;;;;;;4935780;29;20465;-78
2022/05/17 04:51:11;;;;;;;24.73;22.40;;;13.90;96.30;;;;;;4935980;29;20343;-75
2022/05/17 04:53:38;;;;;;;25.07;22.63;;;13.90;96.30;;;;;;4935887;29;20419;-74
2022/05/17 04:56:06;;;;;;;22.17;20.17;;;13.90;96.30;;;;;;4952297;28;20418;-74
2022/05/17 04:58:32;;;;;;;22.40;20.23;;;13.90;96.30;;;;;;4947016;28;20517;-75
2022/05/17 05:00:58;;;;;;;23.17;19.90;;;13.90;96.30;;;;;;4935503;29;20431;-76
2022/05/17 05:03:23;;;;;;;22.30;20.27;;;13.90;96.30;;;;;;4935722;29;20506;-77
2022/05/17 05:05:49;;;;;;;21.87;19.77;;;13.80;96.30;;;;;;4935553;29;20561;-75
2022/05/17 05:08:14;;;;;;;25.13;20.97;;;13.80;96.30;;;;;;4939539;29;20187;-75
2022/05/17 05:10:42;;;;;;;23.30;21.07;;;13.80;96.30;;;;;;4954643;29;20195;-76
2022/05/17 05:13:17;;;;;;;23.90;20.97;;;13.80;96.30;;;;;;4955273;28;20179;-74
2022/05/17 05:15:43;;;;;;;22.00;20.00;;;13.80;96.30;;;;;;4954718;29;20891;-75
2022/05/17 05:18:08;;;;;;;20.97;19.00;;;13.80;96.30;;;;;;4953245;28;20457;-76
2022/05/17 05:20:34;;;;;;;20.37;18.43;;;13.80;96.30;;;;;;4954415;29;20190;-74
2022/05/17 05:23:00;;;;;;;20.17;17.87;;;13.80;96.30;;;;;;4954504;28;20167;-75
2022/05/17 05:25:26;;;;;;;20.43;18.40;;;13.70;96.30;;;;;;4954286;29;20430;-75
2022/05/17 05:27:53;;;;;;;21.23;19.30;;;13.70;96.30;;;;;;4953648;29;20429;-74
2022/05/17 05:30:19;;;;;;;35.33;17.97;;;13.70;96.30;;;;;;4954310;28;20206;-77
2022/05/17 05:32:46;;;;;;;22.00;18.33;;;13.70;96.30;;;;;;4943066;28;20475;-75
2022/05/17 05:35:15;;;;;;;30.33;18.70;;;13.70;96.30;;;;;;4935242;29;20970;-74
2022/05/17 05:37:40;;;;;;;42.00;19.60;;;13.70;96.30;;;;;;4917185;29;20856;-74
2022/05/17 05:40:08;;;;;;;38.70;18.13;;;13.70;96.30;;;;;;4934775;29;20412;-74
2022/05/17 05:42:33;;;;;;;31.47;18.33;;;13.70;96.30;;;;;;4933548;29;20195;-74
2022/05/17 05:44:59;;;;;;;21.97;16.80;;;13.70;96.30;;;;;;4916381;29;20415;-76
2022/05/17 05:47:25;;;;;;;22.77;17.30;;;13.70;96.30;;;;;;4932939;29;20171;-75
2022/05/17 05:49:50;;;;;;;19.73;15.60;;;13.70;96.30;;;;;;4932949;29;20219;-74
2022/05/17 05:52:16;;;;;;;25.80;17.03;;;13.60;96.30;;;;;;4932837;29;20594;-74
2022/05/17 05:54:41;;;;;;;26.30;17.23;;;13.60;96.30;;;;;;4932951;29;20260;-75
2022/05/17 05:57:08;;;;;;;21.60;17.80;;;13.60;96.30;;;;;;4933679;29;20411;-74
2022/05/17 05:59:33;;;;;;;19.33;17.33;;;13.60;96.30;;;;;;4934628;29;20654;-77
2022/05/17 06:01:59;;;;;;;20.33;18.30;;;13.60;96.30;;;;;;4946943;28;20544;-74
2022/05/17 06:04:27;;;;;;;19.93;17.90;;;13.60;96.30;;;;;;4957513;28;20193;-74
2022/05/17 06:06:53;;;;;;;22.97;20.57;;;13.60;96.30;;;;;;4955901;28;20221;-74
2022/05/17 06:09:19;;;;;;;24.27;21.43;;;13.60;96.30;;;;;;4973094;28;20418;-73
2022/05/17 06:11:44;;;;;;;22.17;19.97;;;13.70;96.30;;;;;;4973127;28;20503;-74
2022/05/17 06:14:10;;;;;;;21.73;19.60;;;13.60;96.30;;;;;;4973121;28;20178;-77
2022/05/17 06:16:36;;;;;;;20.10;16.70;;;13.60;96.30;;;;;;4973145;28;20233;-76
2022/05/17 06:19:01;;;;;;;18.50;16.70;;;13.60;96.30;;;;;;4972804;28;20194;-73
2022/05/17 06:21:27;;;;;;;16.40;14.70;;;13.60;96.30;;;;;;4972923;28;20553;-73
2022/05/17 06:23:52;;;;;;;16.87;15.20;;;13.60;96.30;;;;;;4972856;28;20201;-76
2022/05/17 06:26:18;;;;;;;19.83;14.60;;;13.60;96.30;;;;;;4973060;28;20245;-73
2022/05/17 06:28:44;;;;;;;15.93;14.37;;;13.70;96.30;;;;;;4972943;28;20173;-73
2022/05/17 06:31:09;;;;;;;14.90;13.40;;;13.70;96.30;;;;;;4976858;28;20194;-73
2022/05/17 06:33:35;;;;;;;18.10;15.40;;;13.70;96.30;;;;;;4976917;28;20662;-76
2022/05/17 06:36:01;;;;;;;16.00;14.50;;;13.70;96.30;;;;;;4976837;28;20174;-74
2022/05/17 06:38:26;;;;;;;15.80;13.50;;;13.70;96.30;;;;;;4976638;28;20276;-73
2022/05/17 06:40:52;;;;;;;17.90;16.10;;;13.70;96.30;;;;;;4974663;28;20444;-73
2022/05/17 06:43:18;;;;;;;17.77;15.97;;;13.70;96.30;;;;;;4957463;29;20643;-76
2022/05/17 06:45:44;;;;;;;16.57;15.03;;;13.60;96.30;;;;;;4957400;29;20182;-77
2022/05/17 06:48:09;;;;;;;18.00;16.33;;;13.60;96.30;;;;;;4957331;29;20257;-75
2022/05/17 06:50:36;;;;;;;17.57;15.43;;;13.60;96.30;;;;;;4957479;29;20466;-74
2022/05/17 06:53:04;;;;;;;15.93;14.23;;;13.60;96.30;;;;;;4957504;29;20179;-77
2022/05/17 06:55:30;;;;;;;15.33;13.77;;;13.60;96.30;;;;;;4957412;29;20589;-74
2022/05/17 06:57:55;;;;;;;14.00;12.67;;;13.60;96.30;;;;;;4957030;29;20454;-74
2022/05/17 07:00:21;;;;;;;14.20;10.80;;;13.60;96.30;;;;;;4957228;29;20425;-74
2022/05/17 07:02:47;;;;;;;10.90;10.00;;;13.60;96.30;;;;;;4957340;29;20163;-74
2022/05/17 07:05:13;;;;;;;11.50;9.90;;;13.60;96.30;;;;;;4957275;29;20501;-72
2022/05/17 07:07:38;;;;;;;8.90;8.07;;;13.60;96.30;;;;;;4957009;29;20213;-72
2022/05/17 07:13:08;;;;;;;6.83;6.30;;;13.70;96.30;;;;;;4957455;29;20162;-74
2022/05/17 07:15:42;;;;;;;8.73;7.70;;;13.70;96.30;;;;;;4957118;29;20399;-73
2022/05/17 07:18:09;;;;;;;9.60;7.97;;;13.70;96.30;;;;;;4956849;29;20438;-73
2022/05/17 07:20:35;;;;;;;9.73;8.73;;;13.70;96.30;;;;;;4956945;29;20809;-77
2022/05/17 07:23:01;;;;;;;9.40;8.60;;;13.70;96.30;;;;;;4956941;29;20909;-77
2022/05/17 07:25:27;;;;;;;9.50;8.70;;;13.70;96.30;;;;;;4956865;29;20485;-74
2022/05/17 07:27:52;;;;;;;9.03;8.30;;;13.70;96.30;;;;;;4956731;29;20182;-74
2022/05/17 07:30:18;;;;;;;8.10;7.50;;;13.70;96.30;;;;;;4956951;29;20225;-74
2022/05/17 07:32:45;;;;;;;7.77;7.07;;;13.70;96.30;;;;;;4956805;29;20182;-74
2022/05/17 07:35:11;;;;;;;8.77;8.07;;;13.70;96.30;;;;;;4956740;29;20913;-77
2022/05/17 07:37:36;;;;;;;8.90;8.10;;;13.70;96.30;;;;;;4956319;28;20423;-74
2022/05/17 07:40:03;;;;;;;8.73;7.90;;;13.70;96.30;;;;;;4956717;29;20171;-74
2022/05/17 07:42:28;;;;;;;11.83;8.50;;;13.70;96.30;;;;;;4938631;29;20335;-74
2022/05/17 07:44:54;;;;;;;9.13;8.23;;;13.70;96.30;;;;;;4956519;29;20423;-74
2022/05/17 07:47:19;;;;;;;10.03;8.30;;;13.70;96.30;;;;;;4956825;29;20178;-74
2022/05/17 07:49:45;;;;;;;7.13;6.53;;;13.70;96.30;;;;;;4956418;29;20206;-74
2022/05/17 07:52:11;;;;;;;8.77;6.63;;;13.70;96.30;;;;;;4956462;29;20713;-73
2022/05/17 07:54:37;;;;;;;7.63;6.00;;;13.80;96.30;;;;;;4956315;29;20177;-71
2022/05/17 07:57:04;;;;;;;6.07;5.57;;;13.80;96.30;;;;;;4956300;29;20410;-71
2022/05/17 07:59:30;;;;;;;5.83;5.40;;;13.90;96.30;;;;;;4955978;29;20992;-75
2022/05/17 08:01:55;;;;;;;5.17;4.77;;;13.90;96.30;;;;;;4956237;29;20438;-73
2022/05/17 08:04:23;;;;;;;6.77;4.90;;;14.00;96.30;;;;;;4956279;29;20656;-73
2022/05/17 08:06:49;;;;;;;5.60;5.10;;;14.00;96.30;;;;;;4956170;29;20384;-74
2022/05/17 08:09:14;;;;;;;5.03;4.63;;;14.00;96.30;;;;;;4955947;29;20533;-74
2022/05/17 08:11:40;;;;;;;4.80;4.40;;;14.00;96.30;;;;;;4955875;29;20198;-77
2022/05/17 08:14:05;;;;;;;6.23;5.63;;;14.10;96.30;;;;;;4938748;29;20189;-74
2022/05/17 08:16:31;;;;;;;5.60;5.13;;;14.10;96.30;;;;;;4955904;29;20780;-74
2022/05/17 08:18:56;;;;;;;7.37;6.60;;;14.10;96.30;;;;;;4955648;29;20203;-76
2022/05/17 08:21:22;;;;;;;6.90;6.20;;;14.00;96.30;;;;;;4938654;29;20655;-73
2022/05/17 08:23:47;;;;;;;6.70;6.20;;;13.90;96.30;;;;;;4955779;29;20248;-73
2022/05/17 08:28:57;;;;;;;7.57;6.97;;;13.90;96.30;;;;;;4955798;29;20170;-74
2022/05/17 08:31:23;;;;;;;8.00;7.30;;;13.80;96.30;;;;;;4955673;29;20431;-73
2022/05/17 08:33:49;;;;;;;8.47;7.67;;;13.80;96.30;;;;;;4955707;29;20186;-73
2022/05/17 08:36:15;;;;;;;6.87;6.17;;;13.80;96.30;;;;;;4938325;29;20419;-75
2022/05/17 08:38:46;;;;;;;8.10;6.43;;;13.80;96.30;;;;;;4955255;29;20958;-74
2022/05/17 08:41:26;;;;;;;7.17;6.40;;;13.80;96.30;;;;;;4956697;29;20621;-79
2022/05/17 08:43:52;;;;;;;8.30;6.67;;;13.90;96.30;;;;;;4939439;29;20465;-79
2022/05/17 08:46:39;;;;;;;10.70;6.30;;;13.90;96.30;;;;;;4939538;29;20418;-77
2022/05/17 08:49:26;;;;;;;6.70;6.10;;;14.00;96.30;;;;;;4939547;29;20235;-79
2022/05/17 08:52:10;;;;;;;8.77;7.13;;;14.00;96.30;;;;;;4956506;28;21007;-79
2022/05/17 08:54:53;;;;;;;7.90;7.07;;;14.10;96.30;;;;;;4956350;29;20425;-79
2022/05/17 08:57:47;;;;;;;7.73;7.10;;;14.10;96.30;;;;;;4956561;29;20418;-79
2022/05/17 09:00:15;;;;;;;8.23;7.17;;;14.20;96.30;;;;;;4939560;29;20418;-78
2022/05/17 09:02:55;;;;;;;9.30;6.73;;;14.40;96.30;;;;;;4955268;29;20481;-78
2022/05/17 09:05:36;;;;;;;7.27;6.57;;;14.70;96.30;;;;;;4956137;29;20926;-79
2022/05/17 09:08:27;;;;;;;10.40;6.63;;;14.70;96.30;;;;;;4955579;29;20410;-79
2022/05/17 09:11:21;;;;;;;8.07;7.30;;;14.80;96.30;;;;;;4937494;29;20442;-79
2022/05/17 09:14:02;;;;;;;7.57;6.43;;;14.80;96.30;;;;;;5089667;28;20518;-79
2022/05/17 09:16:32;;;;;;;9.27;7.07;;;14.80;96.30;;;;;;5090726;28;20495;-79
2022/05/17 09:18:57;;;;;;;9.77;7.33;;;14.80;96.30;;;;;;5090029;28;20408;-79
2022/05/17 09:21:30;;;;;;;9.93;6.77;;;14.90;96.30;;;;;;5078578;28;20518;-78
2022/05/17 09:24:04;;;;;;;6.57;6.03;;;14.90;96.30;;;;;;5068053;28;20579;-79
2022/05/17 09:26:30;;;;;;;7.90;6.80;;;15.00;96.30;;;;;;5067876;28;20425;-78
2022/05/17 09:29:13;;;;;;;8.23;7.43;;;15.10;96.30;;;;;;5068926;28;20433;-79
2022/05/17 09:31:39;;;;;;;9.23;6.43;;;15.10;96.30;;;;;;5069195;28;20421;-76
2022/05/17 09:34:08;;;;;;;8.07;6.20;;;15.10;96.30;;;;;;5069377;28;20412;-78
2022/05/17 09:36:49;;;;;;;8.47;6.60;;;15.00;96.30;;;;;;5067967;28;20184;-77
2022/05/17 09:39:20;;;;;;;7.37;6.67;;;14.90;96.30;;;;;;5068897;28;20413;-78
2022/05/17 09:41:47;;;;;;;7.70;7.00;;;14.90;96.30;;;;;;5068903;28;20432;-77
2022/05/17 09:44:19;;;;;;;7.10;6.40;;;14.80;96.30;;;;;;5068634;28;20416;-77
2022/05/17 09:46:47;;;;;;;7.80;7.07;;;14.60;96.30;;;;;;5067496;28;20408;-78
2022/05/17 09:52:44;;;;;;;7.70;7.00;;;14.40;96.30;;;;;;5068752;28;21002;-78
2022/05/17 09:55:12;;;;;;;7.50;6.83;;;14.30;96.30;;;;;;5067321;28;20417;-77
2022/05/17 09:57:49;;;;;;;7.77;6.93;;;14.30;96.30;;;;;;5068222;28;20776;-76
2022/05/17 10:00:30;;;;;;;7.93;7.20;;;14.30;96.30;;;;;;5068394;28;20409;-78
2022/05/17 10:03:05;;;;;;;8.53;7.63;;;14.20;96.30;;;;;;5067334;28;20909;-77
2022/05/17 10:05:46;;;;;;;11.77;8.00;;;14.20;96.30;;;;;;5068295;28;20462;-78
2022/05/17 10:08:14;;;;;;;9.73;8.50;;;14.30;96.30;;;;;;5067346;28;20408;-78
2022/05/17 10:10:43;;;;;;;10.63;8.97;;;14.50;96.30;;;;;;5067374;28;20435;-77
2022/05/17 10:13:29;;;;;;;15.70;9.53;;;14.80;96.30;;;;;;5068024;28;20460;-77
2022/05/17 10:16:01;;;;;;;10.07;9.07;;;15.30;96.30;;;;;;5068209;28;20409;-77
2022/05/17 10:18:48;;;;;;;11.43;8.67;;;15.40;96.30;;;;;;5067613;28;20405;-77
2022/05/17 10:21:25;;;;;;;12.50;8.70;;;15.70;96.30;;;;;;5068002;28;20482;-78
2022/05/17 10:24:00;;;;;;;10.10;8.43;;;16.10;96.30;;;;;;5062478;28;20409;-77
2022/05/17 10:26:31;;;;;;;8.23;7.43;;;16.20;96.30;;;;;;5055562;28;20417;-77
2022/05/17 10:29:04;;;;;;;12.60;7.30;;;16.00;96.30;;;;;;5053659;28;20445;-78
2022/05/17 10:57:41;;;;;;;7.37;6.10;;;18.10;96.30;;;;;;5371012;23;20494;-77
2022/05/17 11:00:18;;;;;;;6.73;6.13;;;17.80;96.30;;;;;;5014481;28;20388;-72
2022/05/17 11:03:21;;;;;;;7.83;6.43;;;17.80;96.30;;;;;;4994934;28;20479;-72
2022/05/17 11:05:58;;;;;;;8.90;6.80;;;18.50;96.30;;;;;;4994807;28;20408;-72
2022/05/17 11:08:34;;;;;;;11.50;6.50;;;19.50;96.30;;;;;;4994516;28;20466;-72
2022/05/17 11:11:21;;;;;;;6.43;5.27;;;19.90;96.30;;;;;;4994649;28;20507;-72
2022/05/17 11:13:58;;;;;;;6.87;6.27;;;19.60;96.30;;;;;;4994477;28;20448;-76
2022/05/17 11:16:36;;;;;;;6.27;5.63;;;19.10;96.30;;;;;;4994702;28;20400;-73
2022/05/17 11:19:23;;;;;;;6.43;5.70;;;18.70;96.30;;;;;;4994285;28;20801;-74
2022/05/17 11:21:57;;;;;;;7.23;6.53;;;18.40;96.30;;;;;;4994453;28;20828;-77
2022/05/17 11:24:29;;;;;;;6.33;5.60;;;17.80;96.30;;;;;;4994517;28;20767;-73
2022/05/17 11:27:16;;;;;;;6.73;5.87;;;17.60;96.30;;;;;;4994300;28;20413;-77
2022/05/17 11:30:20;;;;;;;8.63;6.17;;;17.80;96.30;;;;;;4994285;28;20504;-73
2022/05/17 11:33:22;;;;;;;8.20;5.80;;;18.40;96.30;;;;;;4994145;28;21055;-74
2022/05/17 11:35:53;;;;;;;8.53;5.70;;;18.60;96.30;;;;;;4993300;28;20900;-74
2022/05/17 11:38:31;;;;;;;12.13;6.20;;;19.10;96.30;;;;;;4994050;28;20483;-74
2022/05/17 11:41:01;;;;;;;6.80;6.10;;;19.40;96.30;;;;;;4994083;28;20425;-74
2022/05/17 11:44:02;;;;;;;7.90;5.30;;;19.50;96.30;;;;;;4994129;28;20436;-73
2022/05/17 11:46:27;;;;;;;10.33;5.13;;;19.30;96.30;;;;;;4994078;28;20400;-75
2022/05/17 11:49:18;;;;;;;6.60;5.97;;;18.70;96.30;;;;;;4993994;28;20417;-77
2022/05/17 11:51:59;;;;;;;6.83;5.43;;;18.70;96.30;;;;;;4993803;28;20198;-76
2022/05/17 11:54:42;;;;;;;8.00;5.30;;;19.20;96.30;;;;;;4993721;28;20412;-76
2022/05/17 11:57:20;;;;;;;7.27;5.10;;;19.60;96.30;;;;;;4993665;28;20429;-77
2022/05/17 11:59:55;;;;;;;6.07;5.47;;;19.60;96.30;;;;;;4976145;28;20432;-77
2022/05/17 12:02:47;;;;;;;6.33;5.03;;;19.80;96.30;;;;;;4993534;28;20883;-77
2022/05/17 12:05:33;;;;;;;10.37;4.87;;;19.80;96.30;;;;;;4993624;28;20905;-77
2022/05/17 12:08:27;;;;;;;7.97;5.20;;;20.10;96.30;;;;;;4975951;28;20424;-77
2022/05/17 12:11:10;;;;;;;4.73;4.30;;;20.60;96.30;;;;;;4993366;28;20785;-77
2022/05/17 12:13:53;;;;;;;6.60;4.93;;;20.00;96.30;;;;;;4993398;28;20452;-76
2022/05/17 12:16:23;;;;;;;6.77;4.60;;;20.00;96.30;;;;;;4993443;28;20413;-75
2022/05/17 12:18:59;;;;;;;10.57;5.13;;;19.70;96.30;;;;;;4993333;28;20908;-76
2022/05/17 12:21:46;;;;;;;7.27;5.10;;;19.60;96.30;;;;;;4993236;28;20463;-77
2022/05/17 12:24:40;;;;;;;8.13;4.73;;;19.80;96.30;;;;;;4993332;28;20503;-77
2022/05/17 12:27:18;;;;;;;11.00;4.57;;;19.90;96.30;;;;;;4993288;28;20412;-76
2022/05/17 12:32:35;;;;;;;13.10;5.87;;;19.50;96.30;;;;;;4992862;28;20830;-77
2022/05/17 12:35:01;;;;;;;6.00;5.40;;;19.50;96.30;;;;;;4993163;28;20807;-76
2022/05/17 12:37:28;;;;;;;8.30;5.43;;;19.60;96.30;;;;;;4992596;28;20417;-77
2022/05/17 12:43:02;;;;;;;7.53;4.73;;;19.30;96.30;;;;;;4993267;28;20419;-77
2022/05/17 12:45:31;;;;;;;5.47;4.70;;;18.80;96.30;;;;;;4991706;28;20476;-76
2022/05/17 12:47:59;;;;;;;6.33;5.03;;;18.30;96.30;;;;;;4992302;28;20445;-76
2022/05/17 12:50:44;;;;;;;6.67;5.00;;;18.00;96.30;;;;;;4975191;28;20556;-77
2022/05/17 12:53:24;;;;;;;10.20;5.20;;;17.80;96.30;;;;;;4975227;28;20467;-76
2022/05/17 12:56:06;;;;;;;7.70;6.23;;;17.80;96.30;;;;;;4975496;28;20932;-77
2022/05/17 12:58:47;;;;;;;6.90;5.63;;;17.50;96.30;;;;;;4994043;28;20416;-78
2022/05/17 13:01:13;;;;;;;8.13;5.43;;;17.50;96.30;;;;;;4996484;28;20424;-78
2022/05/17 13:03:43;;;;;;;6.10;5.00;;;17.80;96.30;;;;;;4997799;28;20416;-79
2022/05/17 13:06:09;;;;;;;24.47;4.90;;;18.00;96.30;;;;;;4996149;28;20425;-78
2022/05/17 13:08:38;;;;;;;8.70;4.67;;;18.10;96.30;;;;;;4978871;28;20421;-78
2022/05/17 13:11:09;;;;;;;11.00;5.27;;;18.30;96.30;;;;;;4996112;28;20935;-78
2022/05/17 13:13:37;;;;;;;8.60;4.70;;;18.70;96.30;;;;;;4994311;28;20444;-77
2022/05/17 13:16:32;;;;;;;8.13;4.53;;;19.00;96.30;;;;;;4995983;28;20420;-77
2022/05/17 13:19:01;;;;;;;14.70;4.50;;;19.90;96.30;;;;;;4993957;28;20517;-78
2022/05/17 13:21:42;;;;;;;6.43;4.10;;;20.40;96.30;;;;;;4995129;28;20428;-77
2022/05/17 13:24:23;;;;;;;16.57;4.60;;;20.60;96.30;;;;;;4994801;28;20904;-77
2022/05/17 13:26:49;;;;;;;5.03;4.00;;;20.80;96.30;;;;;;4995381;28;20408;-77
2022/05/17 13:29:33;;;;;;;10.00;4.10;;;20.80;96.30;;;;;;4993824;28;20412;-76
2022/05/17 13:32:04;;;;;;;6.00;4.57;;;20.40;96.30;;;;;;4996811;28;20463;-77
2022/05/17 13:34:37;;;;;;;8.90;4.23;;;20.50;96.30;;;;;;4997106;28;20417;-77
2022/05/17 13:37:14;;;;;;;9.83;4.33;;;20.70;96.30;;;;;;4995826;28;20455;-77
2022/05/17 13:39:41;;;;;;;9.40;3.93;;;20.60;96.30;;;;;;4993119;28;20443;-77
2022/05/17 13:42:22;;;;;;;6.30;3.97;;;20.80;96.30;;;;;;4993437;28;20928;-78
2022/05/17 13:44:52;;;;;;;7.43;4.47;;;21.00;96.30;;;;;;4993268;28;20496;-77
2022/05/17 13:47:30;;;;;;;7.00;4.57;;;20.80;96.30;;;;;;4992024;28;20527;-78
2022/05/17 13:49:58;;;;;;;7.63;4.53;;;20.70;96.30;;;;;;4991864;28;20460;-77
2022/05/17 13:52:32;;;;;;;7.17;4.17;;;21.20;96.30;;;;;;4973192;28;20528;-79
2022/05/17 13:55:05;;;;;;;5.47;4.30;;;21.10;96.30;;;;;;4975955;28;20414;-77
2022/05/17 13:57:35;;;;;;;5.40;4.43;;;20.50;96.30;;;;;;4983897;28;20808;-78
2022/05/17 14:00:10;;;;;;;4.47;4.07;;;20.30;96.30;;;;;;4994486;28;20428;-78
2022/05/17 14:02:54;;;;;;;5.47;4.37;;;20.10;96.30;;;;;;4988244;28;20849;-79
2022/05/17 14:05:30;;;;;;;6.27;4.80;;;19.70;96.30;;;;;;4985728;28;20429;-80
2022/05/17 14:13:51;;;;;;;7.53;4.10;;;18.00;96.30;;;;;;5004874;28;20554;-78
2022/05/17 14:16:29;;;;;;;5.70;4.80;;;17.90;96.30;;;;;;5009352;28;20464;-77
2022/05/17 14:18:54;;;;;;;6.00;5.10;;;18.00;96.30;;;;;;5007148;28;20181;-78
2022/05/17 14:21:20;;;;;;;8.53;4.40;;;18.10;96.30;;;;;;4998916;28;20499;-77
2022/05/17 14:23:46;;;;;;;7.30;4.80;;;17.80;96.30;;;;;;5006477;28;20250;-75
2022/05/17 14:26:13;;;;;;;6.57;4.37;;;17.80;96.30;;;;;;4995592;28;20186;-75
2022/05/17 14:28:40;;;;;;;6.77;4.60;;;17.80;96.30;;;;;;4977283;28;20249;-78
2022/05/17 14:31:12;;;;;;;5.10;4.23;;;17.90;96.30;;;;;;4976012;28;20800;-76
2022/05/17 14:33:38;;;;;;;7.63;4.97;;;17.80;96.30;;;;;;4958760;28;20468;-76
2022/05/17 14:36:04;;;;;;;6.57;4.77;;;17.70;96.30;;;;;;4976100;28;20418;-77
2022/05/17 14:38:30;;;;;;;9.70;4.83;;;17.80;96.30;;;;;;4976004;28;20237;-76
2022/05/17 14:40:55;;;;;;;6.90;4.50;;;17.80;96.30;;;;;;4958573;28;20517;-78
2022/05/17 14:43:21;;;;;;;6.63;4.37;;;17.60;96.30;;;;;;4958627;28;20560;-75
2022/05/17 14:45:55;;;;;;;6.10;4.50;;;17.50;96.30;;;;;;4975865;28;20540;-75
2022/05/17 14:48:23;;;;;;;4.67;3.90;;;17.50;96.30;;;;;;4986876;28;20177;-75
2022/05/17 14:50:48;;;;;;;8.07;4.27;;;17.80;96.30;;;;;;4995143;28;20503;-75
2022/05/17 14:53:14;;;;;;;5.27;4.77;;;17.90;96.30;;;;;;4988499;28;20891;-77
2022/05/17 14:55:39;;;;;;;8.20;4.90;;;17.90;96.30;;;;;;4995139;28;20182;-74
2022/05/17 14:58:06;;;;;;;4.93;4.43;;;18.00;96.30;;;;;;4995072;28;20190;-74
2022/05/17 15:00:32;;;;;;;5.50;4.00;;;17.90;96.30;;;;;;4996065;28;20197;-79
2022/05/17 15:03:04;;;;;;;7.23;4.47;;;17.90;96.30;;;;;;4987190;28;20933;-79
2022/05/17 15:05:32;;;;;;;11.70;4.97;;;18.00;96.30;;;;;;4995902;28;20181;-78
2022/05/17 15:07:59;;;;;;;5.40;4.50;;;17.90;96.30;;;;;;4997194;28;20415;-79
2022/05/17 15:10:28;;;;;;;12.23;4.30;;;17.90;96.30;;;;;;5007597;28;20416;-79
2022/05/17 15:12:54;;;;;;;8.13;5.30;;;17.90;96.30;;;;;;4995232;28;20495;-78
2022/05/17 15:15:20;;;;;;;6.53;4.90;;;17.60;96.30;;;;;;4995560;28;20437;-78
2022/05/17 15:18:13;;;;;;;6.47;5.03;;;17.40;96.30;;;;;;4988311;28;20432;-79
2022/05/17 15:20:40;;;;;;;5.97;4.97;;;17.50;96.30;;;;;;4986907;28;20507;-78
2022/05/17 15:23:06;;;;;;;6.30;4.83;;;17.70;96.30;;;;;;4994201;28;20413;-78
2022/05/17 15:25:32;;;;;;;6.97;4.93;;;17.90;96.30;;;;;;4994457;28;20924;-79
2022/05/17 15:27:57;;;;;;;7.80;4.47;;;18.10;96.30;;;;;;4993591;28;20419;-78
2022/05/17 15:30:25;;;;;;;5.03;4.20;;;18.20;96.30;;;;;;4993854;28;20666;-78
2022/05/17 15:32:52;;;;;;;5.50;4.27;;;18.20;96.30;;;;;;4994423;28;20205;-78
2022/05/17 15:35:30;;;;;;;5.70;3.90;;;18.30;96.30;;;;;;4976121;28;20421;-76
2022/05/17 15:37:56;;;;;;;4.80;4.00;;;18.40;96.30;;;;;;4974049;28;20416;-77
2022/05/17 15:40:22;;;;;;;4.87;4.37;;;18.40;96.30;;;;;;4990465;28;20440;-76
2022/05/17 15:42:48;;;;;;;7.00;4.60;;;18.30;96.30;;;;;;4994036;28;20186;-77
2022/05/17 15:45:14;;;;;;;4.90;4.43;;;18.50;96.30;;;;;;4994175;28;20416;-78
2022/05/17 15:53:19;;;;;;;5.10;4.50;;;18.80;96.30;;;;;;4992542;28;20631;-79
2022/05/17 15:55:57;;;;;;;5.13;4.33;;;19.10;96.30;;;;;;4993893;28;20911;-77
2022/05/17 15:58:26;;;;;;;4.67;4.27;;;19.20;96.30;;;;;;4992753;28;20470;-77
2022/05/17 16:00:53;;;;;;;7.00;4.30;;;19.10;96.30;;;;;;4992213;28;20512;-79
2022/05/17 16:03:31;;;;;;;8.20;4.20;;;19.10;96.30;;;;;;4993885;28;20452;-78
2022/05/17 16:05:57;;;;;;;9.90;4.00;;;19.00;96.30;;;;;;4993651;28;20463;-77
2022/05/17 16:08:23;;;;;;;6.30;3.97;;;19.10;96.30;;;;;;5003740;28;20915;-78
2022/05/17 16:10:48;;;;;;;5.97;4.50;;;18.90;96.30;;;;;;5011797;28;20196;-78
2022/05/17 16:13:15;;;;;;;12.53;4.70;;;18.80;96.30;;;;;;4985967;28;20198;-78
2022/05/17 16:15:47;;;;;;;5.63;4.10;;;18.50;96.30;;;;;;5013273;28;20170;-77
2022/05/17 16:18:23;;;;;;;6.50;4.57;;;18.30;96.30;;;;;;5012152;28;20494;-77
2022/05/17 16:20:49;;;;;;;5.37;4.03;;;18.50;96.30;;;;;;5006902;28;20473;-78
2022/05/17 16:23:15;;;;;;;9.13;4.50;;;18.40;96.30;;;;;;5000715;28;20952;-78
2022/05/17 16:25:44;;;;;;;6.40;4.67;;;18.40;96.30;;;;;;4976153;28;20872;-74
2022/05/17 16:28:11;;;;;;;7.03;3.67;;;18.30;96.30;;;;;;4955949;28;20470;-75
2022/05/17 16:30:45;;;;;;;9.40;4.00;;;18.40;96.30;;;;;;4989517;28;20522;-81
2022/05/17 16:33:12;;;;;;;5.40;3.87;;;18.60;96.30;;;;;;4956003;28;20961;-74
2022/05/17 16:35:39;;;;;;;6.30;4.00;;;19.10;96.30;;;;;;4972239;28;20406;-75
2022/05/17 16:38:06;;;;;;;5.87;3.50;;;19.20;96.30;;;;;;4973980;28;20417;-74
2022/05/17 16:40:34;;;;;;;4.17;3.77;;;19.00;96.30;;;;;;4992160;28;20408;-74
2022/05/17 16:43:00;;;;;;;9.40;4.67;;;19.00;96.30;;;;;;4974404;28;20421;-75
2022/05/17 16:45:28;;;;;;;5.20;3.50;;;18.90;96.30;;;;;;4992998;28;20826;-77
2022/05/17 16:47:54;;;;;;;7.87;4.00;;;18.80;96.30;;;;;;4992510;28;20861;-73
2022/05/17 16:50:21;;;;;;;4.20;3.53;;;18.50;96.30;;;;;;4992843;28;20436;-73
2022/05/17 16:52:47;;;;;;;6.30;4.07;;;18.50;96.30;;;;;;4975721;28;20289;-73
2022/05/17 16:55:12;;;;;;;5.73;4.17;;;18.30;96.30;;;;;;4992994;28;20453;-76
2022/05/17 16:57:38;;;;;;;8.57;4.40;;;18.40;96.30;;;;;;4990928;28;20186;-73
2022/05/17 17:00:05;;;;;;;6.20;4.20;;;18.30;96.30;;;;;;4992814;28;20264;-73
2022/05/17 17:02:33;;;;;;;9.53;3.77;;;18.20;96.30;;;;;;4994018;28;20699;-76
2022/05/17 17:04:59;;;;;;;4.80;3.43;;;18.10;96.30;;;;;;5003840;28;20506;-75
2022/05/17 17:07:26;;;;;;;5.90;3.90;;;18.20;96.30;;;;;;5003857;28;20450;-75
2022/05/17 17:09:51;;;;;;;7.83;4.00;;;18.20;96.30;;;;;;5012106;28;20507;-75
2022/05/17 17:12:19;;;;;;;5.70;3.60;;;18.40;96.30;;;;;;5003770;28;20870;-75
2022/05/17 17:14:45;;;;;;;7.57;3.60;;;18.50;96.30;;;;;;5011917;28;20185;-75
2022/05/17 17:17:11;;;;;;;6.20;4.17;;;18.70;96.30;;;;;;5011921;28;20451;-75
2022/05/17 17:19:37;;;;;;;6.00;4.00;;;18.70;96.30;;;;;;5011575;28;20261;-74
2022/05/17 17:22:03;;;;;;;4.70;4.30;;;18.20;96.30;;;;;;5012080;28;20951;-74
2022/05/17 17:24:29;;;;;;;4.20;3.37;;;18.30;96.30;;;;;;5012052;28;20177;-75
2022/05/17 17:26:54;;;;;;;6.13;3.50;;;18.50;96.30;;;;;;4990457;28;20416;-75
2022/05/17 17:29:20;;;;;;;4.73;3.77;;;18.40;96.30;;;;;;4975835;28;20181;-74
2022/05/17 17:31:47;;;;;;;5.87;3.70;;;18.20;96.30;;;;;;5000469;28;20202;-76
2022/05/17 17:39:41;;;;;;;8.10;3.53;;;17.60;96.30;;;;;;5016078;28;20461;-74
2022/05/17 17:42:09;;;;;;;4.97;3.20;;;17.40;96.30;;;;;;5007630;28;20843;-74
2022/05/17 17:44:35;;;;;;;5.77;4.03;;;17.30;96.30;;;;;;5003263;28;20181;-74
2022/05/17 17:47:01;;;;;;;4.50;3.17;;;17.30;96.30;;;;;;4996236;28;20452;-74
2022/05/17 17:49:28;;;;;;;3.50;3.20;;;17.20;96.30;;;;;;4995916;28;20762;-74
2022/05/17 17:51:53;;;;;;;5.27;3.60;;;17.10;96.30;;;;;;4991495;28;20445;-75
2022/05/17 17:54:19;;;;;;;6.57;3.87;;;17.10;96.30;;;;;;5001621;28;20413;-75
2022/05/17 17:56:44;;;;;;;6.60;4.07;;;17.10;96.30;;;;;;4996964;28;20247;-78
2022/05/17 17:59:13;;;;;;;7.00;3.70;;;17.00;96.30;;;;;;4996591;28;20220;-75